Share

Red Devil, AK (99656)

Sleetmute (PASL) Elev 177 ft | 61.72 °N, 157.15 °W | Change Station

Current weather conditions updated 16 minutes ago

Clear
Clear
30 °F
Feels Like 25 °F
N
5
Wind Variable Wind from North
Sunrise 6:59 AM
Sunset 9:59 PM
Moon Waning Gibbous

Today is forecast to be nearly the same temperature as yesterday.

Pressure 29.58 in
Visibility 10.0 miles
Clouds Clear
Windchill 25 °F
Dew Point 23 °F
Humidity 75%
Rainfall 0.00 in
Snow Depth Not available.
UV 0 out of 16
Pollen Not available.
Air Quality Not available.
Flu Activity Sporadic
METAR PASL 171316Z AUTO 36004KT 10SM CLR M01/M05 A2958 RMK AO1

More Conditions Fewer Conditions

Pressure 29.58 in
Visibility 10.0 miles
Clouds Clear
Windchill 25 °F
Dew Point 23 °F
Humidity 75%
Rainfall 0.00 in
Snow Depth Not available.
UV 0 out of 16
Pollen Not available.
Air Quality Not available.
Flu Activity Sporadic
METAR PASL 171316Z AUTO 36004KT 10SM CLR M01/M05 A2958 RMK AO1

More Conditions Fewer Conditions

10-Day Forecast

Almanac

Astronomy

Apr. 17, 2014 Rise Set
Actual Time 6:59 AM AKDT 9:59 PM AKDT
Civil Twilight 6:08 AM AKDT 10:50 PM AKDT
Nautical Twilight 4:58 AM AKDT 12:02 AM AKDT
Astronomical Twilight 3:01 AM AKDT 1:55 AM AKDT
Moon 12:23 AM AKDT 8:05 AM AKDT
Length of Visible Light 16h 41m
Length of Day
15h 00m
Tomorrow will be 5m 51s longer.
Waning Gibbous, 94% of the Moon is Illuminated
Today
Waning Gibbous
Apr 22
Last Quarter
Apr 29
New
May 6
First Quarter
May 14
Full

Today's Extremes

State Highs State Lows

Community

  • New Day
    New Day
  • Lake Michigan Sunrise
    Lake Michigan Sunrise
  • sunset from izmir, narlıdere
    sunset from izmir, narlıdere
  • oregon cherry
    oregon cherry
  • Sunset over the Bay
    Sunset over the Bay

WunderPhotos

Upload Photos

1,701,963 photos uploaded!

Nearby

Snow Depth

Station Depth Elevation
Mcneil Canyon 11 in 1320 ft
Susitna Valley High 20 in 375 ft
Point Mackenzie 11 in 200 ft
Port Graham 10 in 300 ft
MF Bradley River 22 in 2300 ft

Coastal Water Temperatures

Place Temperature
No Stations Reporting

Earthquake Activity

City Distance Mag. Time & Date
No recent earthquake activity has been reported nearby.
Minimum magnitude displayed is 2.5.

Nearby Weather Stations

There are no personal weather stations in this area.

What do you think?

We're not finished. Please let us know what you like, what you don't like, and what you are still missing.